Aylett, Virginia
Current Conditions -  °F | °C
As of 2:35 AM on Thursday 23 Oct 2014 (Local Time) from KXSA Reporting Station
Scattered Clouds Scattered Clouds  
Wind Chill: 52°   Ceiling: Unl
Heat Index: 52°   Visibility: 10mi
Dew Point: 40°   Wind: 8mph
Humidity: 63%   Direction: 290°WNW
Pressure: 29.91"   Gusts: NA
Location:  37.79°N, 77.11°W
Report Text: KXSA 230635Z AUTO 29007KT 10SM SCT034 11/04 A2991 RMK AO2 T01100042
Loading
Personal Weather Stations






























Interactive Weather Map
Tropical Storm Tracking
New forecast layout! Learn more

10-Day Weather Forecast

Advertisements
Track Severe Weather on mobile